createdAt,value
2022-11-15T00:00:30.072Z,17.88
2022-11-15T00:03:00.307Z,17.75
2022-11-15T00:05:30.444Z,19.67
2022-11-15T00:08:00.684Z,18.38
2022-11-15T00:10:30.809Z,19.17
2022-11-15T00:13:00.997Z,17.80
2022-11-15T00:15:31.103Z,19.33
2022-11-15T00:18:01.254Z,20.42
2022-11-15T00:20:31.561Z,19.88
2022-11-15T00:23:01.751Z,16.30
2022-11-15T00:25:32.671Z,16.98
2022-11-15T00:28:03.550Z,20.25
2022-11-15T00:30:33.771Z,19.95
2022-11-15T00:33:05.876Z,17.65
2022-11-15T00:35:36.461Z,18.95
2022-11-15T00:38:06.602Z,22.20
2022-11-15T00:40:36.827Z,20.92
2022-11-15T00:43:06.933Z,19.77
2022-11-15T00:45:37.327Z,19.58
2022-11-15T00:48:07.515Z,16.00
2022-11-15T00:50:37.603Z,18.98
2022-11-15T00:53:07.820Z,18.85
2022-11-15T00:55:38.007Z,17.55
2022-11-15T00:58:08.280Z,18.40
2022-11-15T01:00:38.450Z,18.85
2022-11-15T01:03:08.608Z,17.13
2022-11-15T01:05:39.587Z,16.00
2022-11-15T01:08:16.975Z,15.65
2022-11-15T01:10:47.166Z,15.75
2022-11-15T01:13:17.369Z,15.77
2022-11-15T01:15:47.611Z,16.52
2022-11-15T01:18:17.706Z,21.63
2022-11-15T01:20:47.857Z,19.23
2022-11-15T01:23:17.989Z,20.10
2022-11-15T01:25:48.086Z,18.23
2022-11-15T01:28:18.214Z,17.65
2022-11-15T01:30:48.325Z,17.55
2022-11-15T01:33:18.474Z,17.80
2022-11-15T01:35:48.573Z,19.73
2022-11-15T01:38:18.703Z,18.83
2022-11-15T01:40:49.323Z,17.83
2022-11-15T01:43:34.730Z,18.42
2022-11-15T01:46:07.813Z,19.00
2022-11-15T01:48:37.971Z,19.65
2022-11-15T01:51:12.223Z,19.48
2022-11-15T01:53:46.458Z,19.98
2022-11-15T01:56:24.540Z,16.00
2022-11-15T01:58:57.688Z,18.70
2022-11-15T02:01:29.524Z,20.35
2022-11-15T02:04:03.543Z,20.08
2022-11-15T02:06:33.954Z,17.98
2022-11-15T02:09:04.456Z,19.55
2022-11-15T02:11:34.927Z,19.38
2022-11-15T02:14:06.620Z,18.27
2022-11-15T02:16:48.877Z,18.80
2022-11-15T02:19:27.725Z,17.80
2022-11-15T02:22:23.810Z,17.95
2022-11-15T02:25:21.128Z,17.02
2022-11-15T02:28:03.038Z,15.20
2022-11-15T02:31:02.494Z,17.52
2022-11-15T02:33:59.386Z,18.13
2022-11-15T02:36:40.741Z,17.55
2022-11-15T02:39:44.570Z,16.77
2022-11-15T02:42:45.604Z,19.27
2022-11-15T02:45:22.643Z,17.80
2022-11-15T02:47:57.940Z,20.33
2022-11-15T02:50:30.912Z,16.80
2022-11-15T02:53:01.076Z,17.42
2022-11-15T02:55:36.387Z,18.52
2022-11-15T02:58:45.364Z,17.77
2022-11-15T03:01:32.976Z,16.15
2022-11-15T03:04:17.268Z,17.30
2022-11-15T03:07:17.676Z,17.27
2022-11-15T03:09:55.329Z,15.75
2022-11-15T03:12:44.897Z,17.10
2022-11-15T03:15:39.178Z,18.48
2022-11-15T03:18:19.596Z,16.52
2022-11-15T03:20:51.548Z,17.48
2022-11-15T03:23:22.097Z,17.80
2022-11-15T03:25:54.791Z,16.08
2022-11-15T03:28:45.645Z,17.15
2022-11-15T03:31:36.710Z,17.33
2022-11-15T03:34:11.846Z,16.27
2022-11-15T03:36:42.285Z,18.40
2022-11-15T03:39:20.263Z,16.80
2022-11-15T03:42:03.060Z,19.88
2022-11-15T03:44:59.954Z,15.77
2022-11-15T03:47:37.604Z,16.45
2022-11-15T03:50:35.009Z,15.07
2022-11-15T03:53:05.222Z,15.30
2022-11-15T03:55:35.299Z,17.42
2022-11-15T03:58:05.799Z,16.70
2022-11-15T04:00:36.340Z,16.45
2022-11-15T04:03:06.905Z,15.88
2022-11-15T04:05:37.041Z,17.35
2022-11-15T04:08:07.234Z,16.80
2022-11-15T04:10:37.336Z,17.00
2022-11-15T04:13:07.589Z,16.67
2022-11-15T04:15:37.725Z,16.67
2022-11-15T04:18:08.011Z,17.02
2022-11-15T04:20:56.650Z,16.35
2022-11-15T04:23:45.084Z,16.40
2022-11-15T04:26:21.843Z,17.95
2022-11-15T04:29:10.570Z,15.23
2022-11-15T04:31:40.715Z,15.63
2022-11-15T04:34:10.811Z,15.45
2022-11-15T04:36:59.409Z,17.85
2022-11-15T04:39:29.545Z,16.63
2022-11-15T04:41:59.691Z,15.77
2022-11-15T04:44:29.821Z,18.23
2022-11-15T04:47:00.079Z,17.38
2022-11-15T04:49:30.243Z,16.63
2022-11-15T04:52:00.443Z,17.08
2022-11-15T04:54:30.678Z,17.42
2022-11-15T04:57:00.801Z,17.58
2022-11-15T04:59:30.979Z,18.83
2022-11-15T05:02:01.013Z,19.38
2022-11-15T05:04:31.365Z,17.73
2022-11-15T05:07:01.785Z,26.27
2022-11-15T05:09:31.960Z,21.65
2022-11-15T05:12:02.109Z,18.48
2022-11-15T05:14:32.281Z,16.67
2022-11-15T05:17:02.420Z,16.35
2022-11-15T05:19:32.557Z,17.15
2022-11-15T05:22:02.645Z,17.30
2022-11-15T05:24:32.814Z,16.80
2022-11-15T05:27:02.940Z,18.15
2022-11-15T05:29:33.090Z,18.27
2022-11-15T05:32:06.760Z,17.60
2022-11-15T05:34:36.994Z,18.63
2022-11-15T05:37:07.126Z,18.25
2022-11-15T05:39:37.418Z,18.42
2022-11-15T05:42:14.489Z,17.40
2022-11-15T05:44:49.323Z,16.40
2022-11-15T05:47:26.084Z,18.17
2022-11-15T05:49:57.293Z,16.30
2022-11-15T05:52:32.800Z,18.08
2022-11-15T05:55:04.413Z,19.38
2022-11-15T05:57:34.588Z,18.67
2022-11-15T06:00:05.719Z,18.90
2022-11-15T06:02:36.311Z,17.23
2022-11-15T06:05:06.892Z,18.05
2022-11-15T06:07:37.160Z,15.55
2022-11-15T06:10:08.078Z,17.85
2022-11-15T06:12:38.201Z,16.77
2022-11-15T06:15:09.230Z,14.40
2022-11-15T06:17:39.487Z,14.63
2022-11-15T06:20:10.194Z,17.35
2022-11-15T06:22:40.344Z,15.27
2022-11-15T06:25:10.484Z,15.55
2022-11-15T06:27:40.550Z,16.42
2022-11-15T06:30:11.200Z,15.25
2022-11-15T06:32:41.340Z,16.42
2022-11-15T06:35:11.489Z,16.50
2022-11-15T06:37:44.968Z,16.48
2022-11-15T06:40:15.269Z,15.73
2022-11-15T06:42:45.417Z,15.55
2022-11-15T06:45:15.617Z,15.75
2022-11-15T06:47:48.981Z,16.48
2022-11-15T06:50:19.187Z,17.90
2022-11-15T06:52:49.481Z,16.63
2022-11-15T06:55:19.601Z,15.93
2022-11-15T06:57:51.700Z,16.75
2022-11-15T07:00:23.464Z,15.70
2022-11-15T07:02:53.612Z,17.30
2022-11-15T07:05:23.800Z,15.55
2022-11-15T07:07:58.633Z,18.17
2022-11-15T07:10:29.331Z,16.40
2022-11-15T07:12:59.813Z,17.67
2022-11-15T07:15:29.942Z,16.00
2022-11-15T07:18:02.800Z,15.95
2022-11-15T07:20:32.918Z,18.17
2022-11-15T07:23:04.788Z,19.90
2022-11-15T07:25:35.588Z,17.38
2022-11-15T07:28:06.062Z,16.05
2022-11-15T07:30:39.951Z,16.52
2022-11-15T07:33:12.652Z,16.02
2022-11-15T07:35:43.790Z,15.70
2022-11-15T07:38:13.913Z,17.38
2022-11-15T07:40:43.983Z,16.50
2022-11-15T07:43:14.519Z,16.35
2022-11-15T07:45:46.410Z,16.30
2022-11-15T07:48:16.632Z,16.17
2022-11-15T07:50:46.786Z,15.68
2022-11-15T07:53:16.949Z,17.58
2022-11-15T07:55:47.227Z,16.35
2022-11-15T07:58:17.439Z,17.25
2022-11-15T08:00:47.873Z,16.77
2022-11-15T08:03:18.486Z,15.00
2022-11-15T08:05:52.474Z,15.20
2022-11-15T08:08:22.500Z,16.23
2022-11-15T08:10:52.734Z,13.48
2022-11-15T08:13:22.909Z,13.13
2022-11-15T08:15:57.485Z,14.35
2022-11-15T08:18:28.103Z,16.10
2022-11-15T08:21:02.426Z,15.48
2022-11-15T08:23:33.474Z,14.95
2022-11-15T08:26:05.219Z,14.77
2022-11-15T08:28:35.390Z,12.82
2022-11-15T08:31:06.218Z,13.65
2022-11-15T08:33:36.690Z,13.93
2022-11-15T08:36:07.293Z,11.73
2022-11-15T08:38:37.869Z,12.20
2022-11-15T08:41:08.416Z,11.30
2022-11-15T08:43:38.712Z,12.38
2022-11-15T08:46:14.133Z,12.05
2022-11-15T08:48:44.636Z,11.50
2022-11-15T08:51:15.915Z,11.95
2022-11-15T08:53:46.381Z,13.18
2022-11-15T08:56:17.513Z,13.30
2022-11-15T08:58:48.507Z,11.57
2022-11-15T09:01:22.905Z,12.00
2022-11-15T09:03:53.851Z,12.10
2022-11-15T09:06:24.467Z,11.43
2022-11-15T09:08:54.861Z,13.50
2022-11-15T09:11:25.169Z,12.85
2022-11-15T09:13:55.651Z,12.60
2022-11-15T09:16:25.711Z,12.32
2022-11-15T09:18:56.004Z,12.57
2022-11-15T09:21:26.068Z,11.38
2022-11-15T09:23:56.985Z,12.40
2022-11-15T09:26:27.221Z,11.75
2022-11-15T09:28:58.264Z,12.55
2022-11-15T09:31:28.601Z,11.70
2022-11-15T09:33:58.771Z,12.27
2022-11-15T09:36:29.015Z,11.43
2022-11-15T09:38:59.777Z,10.20
2022-11-15T09:41:58.621Z,11.95
2022-11-15T09:44:47.227Z,10.45
2022-11-15T09:47:32.642Z,11.60
2022-11-15T09:50:11.456Z,10.13
2022-11-15T09:52:46.930Z,9.43
2022-11-15T09:55:22.529Z,10.55
2022-11-15T09:58:18.706Z,10.25
2022-11-15T10:00:53.952Z,9.95
2022-11-15T10:03:37.550Z,9.75
2022-11-15T10:06:11.036Z,10.80
2022-11-15T10:09:03.112Z,11.18
2022-11-15T10:11:38.284Z,10.50
2022-11-15T10:14:22.680Z,13.50
2022-11-15T10:17:26.770Z,10.98
2022-11-15T10:20:06.023Z,11.80
2022-11-15T10:22:42.429Z,12.00
2022-11-15T10:25:19.924Z,10.73
2022-11-15T10:28:00.818Z,12.05
2022-11-15T10:30:42.493Z,11.70
2022-11-15T10:33:20.476Z,11.23
2022-11-15T10:36:10.529Z,12.20
2022-11-15T10:38:49.564Z,10.80
2022-11-15T10:41:28.364Z,12.40
2022-11-15T10:44:13.341Z,10.30
2022-11-15T10:46:48.064Z,11.70
2022-11-15T10:49:27.079Z,11.63
2022-11-15T10:51:59.222Z,11.75
2022-11-15T10:54:43.580Z,12.02
2022-11-15T10:57:17.132Z,11.05
2022-11-15T10:59:50.819Z,10.43
2022-11-15T11:02:38.267Z,12.07
2022-11-15T11:05:29.324Z,16.55
2022-11-15T11:08:02.712Z,21.60
2022-11-15T11:10:51.919Z,17.48
2022-11-15T11:13:29.312Z,16.88
2022-11-15T11:16:15.630Z,16.80
2022-11-15T11:18:48.507Z,12.00
2022-11-15T11:21:54.860Z,14.90
2022-11-15T11:24:37.805Z,14.45
2022-11-15T11:27:20.079Z,12.95
2022-11-15T11:30:01.326Z,13.38
2022-11-15T11:32:34.405Z,12.75
2022-11-15T11:35:32.268Z,35.35
2022-11-15T11:38:16.526Z,24.60
2022-11-15T11:41:08.031Z,29.27
2022-11-15T11:43:58.572Z,20.73
2022-11-15T11:46:39.011Z,31.38
2022-11-15T11:49:19.966Z,24.88
2022-11-15T11:52:18.538Z,16.42
2022-11-15T11:54:56.882Z,109.57
2022-11-15T11:57:34.727Z,51.17
2022-11-15T12:00:19.929Z,31.15
2022-11-15T12:03:08.732Z,19.50
2022-11-15T12:05:46.157Z,30.05
2022-11-15T12:08:41.293Z,17.45
2022-11-15T12:11:25.188Z,16.25
2022-11-15T12:14:02.575Z,13.88
2022-11-15T12:16:34.545Z,12.82
2022-11-15T12:19:06.287Z,11.45
2022-11-15T12:21:42.426Z,11.35
2022-11-15T12:24:29.842Z,11.05
2022-11-15T12:27:26.493Z,11.82
2022-11-15T12:30:04.474Z,12.48
2022-11-15T12:32:50.262Z,13.00
2022-11-15T12:35:36.035Z,10.23
2022-11-15T12:38:10.487Z,42.42
2022-11-15T12:41:18.124Z,992.17
2022-11-15T12:43:50.197Z,864.17
2022-11-15T12:46:29.538Z,999.90
2022-11-15T12:49:10.610Z,759.08
2022-11-15T12:51:43.965Z,164.13
2022-11-15T12:54:23.251Z,118.93
2022-11-15T12:57:05.338Z,336.60
2022-11-15T12:59:56.120Z,271.35
2022-11-15T13:02:35.120Z,26.30
2022-11-15T13:05:20.598Z,17.40
2022-11-15T13:07:50.848Z,462.52
2022-11-15T13:10:33.825Z,935.20
2022-11-15T13:13:10.558Z,680.28
2022-11-15T13:18:32.900Z,912.88
2022-11-15T13:21:25.695Z,999.90
2022-11-15T13:23:56.662Z,141.68
2022-11-15T13:26:27.769Z,24.08
2022-11-15T13:28:58.081Z,10.68
2022-11-15T13:31:35.861Z,7.50
2022-11-15T13:34:50.530Z,8.27
2022-11-15T13:37:21.423Z,6.65
2022-11-15T13:39:51.750Z,5.53
2022-11-15T13:42:22.497Z,5.20
2022-11-15T13:45:01.985Z,9.05
2022-11-15T13:47:33.064Z,6.00
2022-11-15T13:50:09.648Z,8.60
2022-11-15T13:52:45.341Z,7.00
2022-11-15T13:55:20.038Z,605.85
2022-11-15T13:58:00.102Z,186.30
2022-11-15T14:00:43.378Z,93.60
2022-11-15T14:03:23.598Z,61.78
2022-11-15T14:06:16.047Z,12.48
2022-11-15T14:09:12.675Z,10.77
2022-11-15T14:11:56.860Z,10.13
2022-11-15T14:14:28.945Z,23.15
2022-11-15T14:17:00.769Z,8.18
2022-11-15T14:19:32.578Z,6.82
2022-11-15T14:22:29.494Z,7.65
2022-11-15T14:25:22.638Z,6.32
2022-11-15T14:28:14.234Z,8.15
2022-11-15T14:30:49.078Z,8.60
2022-11-15T14:33:35.368Z,10.40
2022-11-15T14:36:16.155Z,12.15
2022-11-15T14:38:47.987Z,11.32
2022-11-15T14:41:24.131Z,10.82
2022-11-15T14:43:54.662Z,7.47
2022-11-15T14:46:24.822Z,10.70
2022-11-15T14:48:55.037Z,10.88
2022-11-15T14:51:25.373Z,8.50
2022-11-15T14:53:56.471Z,7.97
2022-11-15T14:56:26.608Z,11.07
2022-11-15T14:58:56.695Z,9.90
2022-11-15T15:01:27.427Z,8.20
2022-11-15T15:03:59.700Z,10.20
2022-11-15T15:06:31.787Z,8.75
2022-11-15T15:09:01.953Z,8.15
2022-11-15T15:11:32.734Z,8.07
2022-11-15T15:14:02.841Z,9.18
2022-11-15T15:16:33.115Z,9.63
2022-11-15T15:19:03.949Z,9.45
2022-11-15T15:21:37.448Z,10.32
2022-11-15T15:24:13.362Z,8.18
2022-11-15T15:26:44.605Z,9.40
2022-11-15T15:29:14.814Z,8.90
2022-11-15T15:31:44.986Z,9.70
2022-11-15T15:34:16.774Z,9.55
2022-11-15T15:36:47.217Z,9.00
2022-11-15T15:39:17.306Z,10.48
2022-11-15T15:41:47.454Z,9.15
2022-11-15T15:44:17.596Z,10.95
2022-11-15T15:46:47.740Z,8.88
2022-11-15T15:49:17.918Z,8.50
2022-11-15T15:51:48.039Z,9.38
2022-11-15T15:54:18.227Z,10.20
2022-11-15T15:56:52.171Z,8.68
2022-11-15T16:01:55.416Z,8.85
2022-11-15T16:04:27.040Z,11.48
2022-11-15T16:07:01.910Z,11.70
2022-11-15T16:09:50.587Z,12.82
2022-11-15T16:12:20.709Z,16.02
2022-11-15T16:14:50.900Z,15.48
2022-11-15T16:17:32.846Z,16.40
2022-11-15T16:20:07.483Z,15.73
2022-11-15T16:22:37.615Z,14.13
2022-11-15T16:25:08.037Z,15.50
2022-11-15T16:27:39.735Z,17.05
2022-11-15T16:30:15.683Z,15.68
2022-11-15T16:32:46.482Z,16.42
2022-11-15T16:35:18.072Z,16.52
2022-11-15T16:37:48.560Z,18.98
2022-11-15T16:40:28.669Z,18.63
2022-11-15T16:43:00.110Z,15.27
2022-11-15T16:45:32.058Z,16.92
2022-11-15T16:48:02.555Z,11.80
2022-11-15T16:50:41.610Z,12.73
2022-11-15T16:53:12.294Z,12.38
2022-11-15T16:55:42.544Z,15.13
2022-11-15T16:58:12.979Z,17.88
2022-11-15T17:00:43.133Z,17.00
2022-11-15T17:03:13.278Z,14.88
2022-11-15T17:05:43.377Z,16.77
2022-11-15T17:08:13.619Z,16.35
2022-11-15T17:10:44.351Z,15.65
2022-11-15T17:13:14.985Z,13.35
2022-11-15T17:15:45.203Z,12.50
2022-11-15T17:18:15.880Z,14.50
2022-11-15T17:20:46.129Z,14.50
2022-11-15T17:23:16.372Z,11.20
2022-11-15T17:25:46.518Z,14.10
2022-11-15T17:28:16.699Z,12.93
2022-11-15T17:30:46.842Z,13.88
2022-11-15T17:33:17.037Z,12.65
2022-11-15T17:35:47.086Z,13.15
2022-11-15T17:38:17.280Z,16.15
2022-11-15T17:40:47.462Z,18.77
2022-11-15T17:43:17.591Z,18.05
2022-11-15T17:45:47.777Z,21.25
2022-11-15T17:48:17.932Z,22.85
2022-11-15T17:50:59.030Z,20.00
2022-11-15T17:53:33.686Z,18.00
2022-11-15T17:56:04.463Z,15.38
2022-11-15T17:58:35.369Z,15.77
2022-11-15T18:01:14.552Z,14.95
2022-11-15T18:03:45.127Z,12.55
2022-11-15T18:06:16.778Z,12.10
2022-11-15T18:08:49.722Z,11.48
2022-11-15T18:11:22.719Z,11.65
2022-11-15T18:14:01.594Z,10.75
2022-11-15T18:16:34.146Z,15.50
2022-11-15T18:19:13.417Z,18.33
2022-11-15T18:21:57.716Z,12.30
2022-11-15T18:24:35.918Z,12.43
2022-11-15T18:27:06.986Z,12.02
2022-11-15T18:29:38.194Z,14.23
2022-11-15T18:32:11.785Z,13.63
2022-11-15T18:34:42.036Z,16.65
2022-11-15T18:37:12.086Z,16.25
2022-11-15T18:39:44.192Z,14.55
2022-11-15T18:42:14.683Z,16.05
2022-11-15T18:44:45.189Z,13.55
2022-11-15T18:47:15.405Z,14.30
2022-11-15T18:49:45.680Z,12.75
2022-11-15T18:52:15.684Z,13.35
2022-11-15T18:54:45.843Z,11.98
2022-11-15T18:57:15.916Z,11.68
2022-11-15T18:59:46.081Z,12.13
2022-11-15T19:02:16.145Z,14.63
2022-11-15T19:04:46.331Z,12.35
2022-11-15T19:07:16.441Z,12.77
2022-11-15T19:09:46.877Z,14.57
2022-11-15T19:12:16.941Z,13.02
2022-11-15T19:14:47.092Z,13.55
2022-11-15T19:17:17.207Z,13.55
2022-11-15T19:19:47.339Z,12.30
2022-11-15T19:22:17.451Z,11.75
2022-11-15T19:24:47.628Z,16.88
2022-11-15T19:27:17.814Z,14.77
2022-11-15T19:29:47.904Z,11.90
2022-11-15T19:32:17.998Z,12.95
2022-11-15T19:34:48.210Z,12.02
2022-11-15T19:37:18.333Z,11.20
2022-11-15T19:39:48.481Z,10.95
2022-11-15T19:42:18.709Z,11.55
2022-11-15T19:44:48.880Z,11.13
2022-11-15T19:47:19.082Z,12.15
2022-11-15T19:49:49.176Z,10.48
2022-11-15T19:52:21.002Z,11.63
2022-11-15T19:54:51.462Z,11.80
2022-11-15T19:57:21.593Z,10.35
2022-11-15T19:59:55.420Z,11.55
2022-11-15T20:02:26.611Z,9.73
2022-11-15T20:04:56.758Z,9.95
2022-11-15T20:07:26.998Z,13.45
2022-11-15T20:09:57.210Z,11.48
2022-11-15T20:12:28.003Z,10.73
2022-11-15T20:15:01.178Z,11.45
2022-11-15T20:17:31.415Z,10.43
2022-11-15T20:20:02.025Z,12.00
2022-11-15T20:22:32.345Z,10.95
2022-11-15T20:25:02.628Z,11.63
2022-11-15T20:27:32.815Z,13.13
2022-11-15T20:30:04.234Z,14.63
2022-11-15T20:32:34.244Z,12.75
2022-11-15T20:35:04.690Z,9.85
2022-11-15T20:37:35.545Z,10.65
2022-11-15T20:40:06.566Z,13.18
2022-11-15T20:42:36.822Z,10.45
2022-11-15T20:45:07.713Z,9.68
2022-11-15T20:47:37.781Z,8.50
2022-11-15T20:50:35.317Z,9.52
2022-11-15T20:52:59.083Z,9.48
2022-11-15T20:55:29.259Z,11.75
2022-11-15T20:57:59.528Z,15.02
2022-11-15T21:00:29.765Z,17.58
2022-11-15T21:03:00.170Z,16.67
2022-11-15T21:05:30.420Z,12.98
2022-11-15T21:08:00.700Z,13.43
2022-11-15T21:10:49.724Z,17.35
2022-11-15T21:13:20.238Z,12.90
2022-11-15T21:15:50.535Z,15.85
2022-11-15T21:18:20.717Z,16.67
2022-11-15T21:20:52.260Z,16.77
2022-11-15T21:23:22.517Z,15.52
2022-11-15T21:25:53.037Z,14.80
2022-11-15T21:28:24.235Z,12.77
2022-11-15T21:30:57.125Z,13.90
2022-11-15T21:33:28.827Z,15.00
2022-11-15T21:35:59.212Z,12.35
2022-11-15T21:38:29.722Z,11.45
2022-11-15T21:41:04.906Z,12.85
2022-11-15T21:43:35.990Z,13.52
2022-11-15T21:46:07.367Z,13.05
2022-11-15T21:48:40.350Z,14.25
2022-11-15T21:51:13.083Z,16.10
2022-11-15T21:53:43.188Z,16.02
2022-11-15T21:56:13.691Z,17.98
2022-11-15T21:58:43.781Z,16.35
2022-11-15T22:01:32.769Z,13.10
2022-11-15T22:04:03.263Z,12.85
2022-11-15T22:06:35.150Z,12.85
2022-11-15T22:09:06.550Z,11.43
2022-11-15T22:11:37.310Z,10.55
2022-11-15T22:14:07.826Z,12.05
2022-11-15T22:16:38.318Z,12.00
2022-11-15T22:19:08.653Z,12.50
2022-11-15T22:21:40.826Z,12.15
2022-11-15T22:24:11.158Z,11.93
2022-11-15T22:26:43.946Z,12.20
2022-11-15T22:29:14.353Z,13.88
2022-11-15T22:31:44.705Z,25.52
2022-11-15T22:34:16.074Z,15.90
2022-11-15T22:37:18.204Z,12.85
2022-11-15T22:39:37.031Z,12.75
2022-11-15T22:42:07.543Z,11.60
2022-11-15T22:44:38.056Z,9.88
2022-11-15T22:47:08.399Z,12.00
2022-11-15T22:49:38.924Z,13.02
2022-11-15T22:52:09.383Z,11.73
2022-11-15T22:54:40.256Z,11.55
2022-11-15T22:57:13.888Z,14.10
2022-11-15T22:59:44.936Z,13.30
2022-11-15T23:02:15.434Z,12.80
2022-11-15T23:04:46.668Z,10.75
2022-11-15T23:07:17.389Z,10.00
2022-11-15T23:09:52.252Z,11.02
2022-11-15T23:12:41.916Z,11.30
2022-11-15T23:15:13.038Z,10.68
2022-11-15T23:17:45.019Z,10.80
2022-11-15T23:20:41.987Z,11.73
2022-11-15T23:23:13.192Z,9.63
2022-11-15T23:25:44.428Z,9.20
2022-11-15T23:28:15.053Z,8.45
2022-11-15T23:31:04.175Z,8.05
2022-11-15T23:33:52.939Z,7.47
2022-11-15T23:36:23.858Z,8.25
2022-11-15T23:38:54.534Z,6.63
2022-11-15T23:41:25.318Z,6.07
2022-11-15T23:43:55.833Z,6.97
2022-11-15T23:46:26.161Z,6.32
2022-11-15T23:48:56.764Z,7.28
2022-11-15T23:51:27.073Z,6.68
2022-11-15T23:53:57.688Z,7.30
2022-11-15T23:56:28.259Z,7.18
2022-11-15T23:58:58.909Z,7.32
